Time;durP1;ratioP1;P1;durP2;ratioP2;P2;SDS_P1;SDS_P2;PMS_P1;PMS_P2;Temp;Humidity;BMP_temperature;BMP_pressure;BME280_temperature;BME280_humidity;BME280_pressure;Samples;Min_cycle;Max_cycle;Signal;HPM_P1;HPM_P2
2021/04/07 00:00:32;;;;;;;4.03;2.47;;;7.10;78.10;;;;;;5076589;28;20103;-76
2021/04/07 00:02:58;;;;;;;2.00;1.90;;;7.10;77.90;;;;;;5076445;28;20078;-76
2021/04/07 00:05:30;;;;;;;2.67;2.35;;;7.10;77.80;;;;;;5075230;28;20505;-76
2021/04/07 00:07:56;;;;;;;6.15;2.15;;;7.10;77.90;;;;;;5076484;28;20025;-75
2021/04/07 00:10:27;;;;;;;3.03;1.90;;;7.00;77.70;;;;;;5075209;28;20036;-76
2021/04/07 00:12:53;;;;;;;7.88;2.47;;;7.00;77.90;;;;;;5076329;28;20514;-76
2021/04/07 00:15:21;;;;;;;3.22;2.30;;;6.90;78.00;;;;;;5075116;28;20120;-76
2021/04/07 00:17:48;;;;;;;4.72;2.47;;;6.90;78.20;;;;;;5076197;28;20028;-76
2021/04/07 00:20:17;;;;;;;2.75;2.10;;;6.90;78.20;;;;;;5074822;28;20029;-76
2021/04/07 00:22:43;;;;;;;3.35;2.30;;;6.90;77.90;;;;;;5075763;28;20386;-76
2021/04/07 00:25:09;;;;;;;2.67;2.47;;;6.90;77.90;;;;;;5075841;28;20029;-76
2021/04/07 00:27:37;;;;;;;2.45;2.30;;;6.90;77.70;;;;;;5076172;28;20033;-76
2021/04/07 00:30:08;;;;;;;4.32;2.45;;;6.80;77.90;;;;;;5076149;28;20028;-76
2021/04/07 00:32:33;;;;;;;3.60;2.40;;;6.90;78.50;;;;;;5075833;28;20068;-76
2021/04/07 00:34:59;;;;;;;5.95;2.95;;;6.80;78.40;;;;;;5075175;28;20448;-76
2021/04/07 00:37:25;;;;;;;4.07;2.47;;;6.70;77.60;;;;;;5075577;28;20107;-75
2021/04/07 00:39:52;;;;;;;3.33;2.13;;;6.70;77.60;;;;;;5074749;28;20032;-76
2021/04/07 00:42:17;;;;;;;3.85;2.42;;;6.60;77.80;;;;;;5075512;28;20077;-76
2021/04/07 00:44:44;;;;;;;2.50;2.30;;;6.60;78.00;;;;;;5075364;28;20544;-75
2021/04/07 00:47:10;;;;;;;7.07;2.40;;;6.50;78.30;;;;;;5074097;28;20051;-76
2021/04/07 00:49:36;;;;;;;5.72;2.90;;;6.40;78.50;;;;;;5074625;28;20505;-76
2021/04/07 00:52:02;;;;;;;4.32;2.40;;;6.30;78.50;;;;;;5073744;28;20024;-76
2021/04/07 00:54:28;;;;;;;7.18;2.90;;;6.20;78.60;;;;;;5075228;28;20090;-76
2021/04/07 00:56:53;;;;;;;4.10;2.63;;;6.20;78.70;;;;;;5075648;28;20023;-76
2021/04/07 00:59:21;;;;;;;4.25;2.40;;;6.10;78.80;;;;;;5075540;28;20021;-76
2021/04/07 01:01:47;;;;;;;7.30;2.53;;;6.20;79.00;;;;;;5075364;28;20519;-76
2021/04/07 01:04:13;;;;;;;2.60;2.42;;;6.10;78.90;;;;;;5075398;28;20024;-76
2021/04/07 01:06:42;;;;;;;2.78;2.40;;;6.10;78.80;;;;;;5074214;28;20033;-76
2021/04/07 01:09:08;;;;;;;3.88;2.55;;;6.10;78.90;;;;;;5074182;28;20035;-76
2021/04/07 01:11:34;;;;;;;3.85;2.40;;;6.10;79.20;;;;;;5075328;28;20077;-76
2021/04/07 01:14:00;;;;;;;4.65;2.53;;;6.20;79.30;;;;;;5075310;28;20433;-76
2021/04/07 01:16:26;;;;;;;3.25;2.65;;;6.10;79.20;;;;;;5074005;28;20017;-75
2021/04/07 01:18:52;;;;;;;2.80;2.60;;;6.10;78.90;;;;;;5075028;28;20227;-76
2021/04/07 01:21:17;;;;;;;5.60;2.55;;;6.10;78.70;;;;;;5075308;28;20024;-76
2021/04/07 01:23:45;;;;;;;3.10;2.80;;;6.10;78.90;;;;;;5075246;28;20152;-76
2021/04/07 01:26:11;;;;;;;5.50;2.90;;;6.10;79.00;;;;;;5075228;28;20024;-76
2021/04/07 01:28:38;;;;;;;3.85;2.80;;;6.10;79.30;;;;;;5075008;28;20031;-76
2021/04/07 01:31:04;;;;;;;3.75;2.42;;;6.10;79.60;;;;;;5075041;28;20024;-75
2021/04/07 01:33:29;;;;;;;5.30;2.97;;;6.00;78.90;;;;;;5074980;28;20364;-76
2021/04/07 01:35:55;;;;;;;4.70;2.90;;;5.90;79.20;;;;;;5074957;28;20478;-76
2021/04/07 01:38:21;;;;;;;4.75;3.10;;;5.90;79.40;;;;;;5074897;28;20020;-75
2021/04/07 01:40:49;;;;;;;4.85;2.60;;;6.00;79.50;;;;;;5075837;28;20025;-76
2021/04/07 01:43:18;;;;;;;3.92;2.88;;;6.00;79.20;;;;;;5074759;28;20062;-76
2021/04/07 01:45:47;;;;;;;3.00;2.33;;;6.00;78.90;;;;;;5074621;28;20029;-76
2021/04/07 01:48:14;;;;;;;3.60;3.25;;;6.10;78.70;;;;;;5074290;28;20059;-76
2021/04/07 01:50:46;;;;;;;5.22;2.65;;;6.00;78.70;;;;;;5073211;28;20024;-75
2021/04/07 01:53:13;;;;;;;3.50;2.93;;;5.80;79.00;;;;;;5074869;28;20036;-76
2021/04/07 01:55:39;;;;;;;4.15;2.80;;;5.80;79.30;;;;;;5074656;28;20497;-76
2021/04/07 01:58:06;;;;;;;5.22;2.60;;;5.90;79.40;;;;;;5074198;28;20104;-76
2021/04/07 02:00:32;;;;;;;5.95;2.75;;;5.90;79.10;;;;;;5074395;28;20031;-76
2021/04/07 02:02:59;;;;;;;3.13;2.60;;;5.90;79.10;;;;;;5072949;28;20017;-76
2021/04/07 02:05:25;;;;;;;4.50;2.50;;;5.90;79.20;;;;;;5074586;28;20119;-76
2021/04/07 02:07:50;;;;;;;4.20;2.75;;;5.80;79.50;;;;;;5074341;28;20510;-76
2021/04/07 02:10:16;;;;;;;3.47;2.40;;;5.80;79.40;;;;;;5074346;28;20024;-76
2021/04/07 02:12:42;;;;;;;5.35;2.88;;;5.80;79.50;;;;;;5072904;28;20032;-76
2021/04/07 02:15:13;;;;;;;3.45;2.75;;;5.80;79.50;;;;;;5073873;28;20036;-75
2021/04/07 02:17:39;;;;;;;5.80;2.40;;;5.80;79.40;;;;;;5073912;28;20032;-76
2021/04/07 02:20:06;;;;;;;5.55;2.55;;;5.80;79.30;;;;;;5073885;28;20107;-76
2021/04/07 02:22:32;;;;;;;2.45;2.25;;;5.80;79.30;;;;;;5073937;28;20025;-76
2021/04/07 02:24:58;;;;;;;3.05;2.55;;;5.80;79.40;;;;;;5073898;28;20045;-76
2021/04/07 02:27:25;;;;;;;3.53;2.58;;;5.80;79.30;;;;;;5073285;28;20032;-76
2021/04/07 02:29:55;;;;;;;4.03;2.30;;;5.80;79.10;;;;;;5072587;28;20032;-76
2021/04/07 02:32:23;;;;;;;3.28;2.65;;;5.90;79.10;;;;;;5072520;28;20445;-76
2021/04/07 02:34:49;;;;;;;5.68;2.40;;;5.90;78.90;;;;;;5073818;28;20386;-76
2021/04/07 02:37:16;;;;;;;5.88;2.70;;;5.90;78.90;;;;;;5073992;28;20424;-76
2021/04/07 02:39:43;;;;;;;4.63;2.72;;;5.80;79.00;;;;;;5072014;28;20371;-76
2021/04/07 02:42:10;;;;;;;5.93;2.47;;;5.60;79.40;;;;;;5073501;28;20024;-75
2021/04/07 02:44:36;;;;;;;4.63;2.85;;;5.60;79.70;;;;;;5072343;28;20059;-76
2021/04/07 02:47:03;;;;;;;3.05;2.55;;;5.70;79.80;;;;;;5073319;28;20503;-76
2021/04/07 02:49:29;;;;;;;2.40;2.30;;;5.60;79.70;;;;;;5073428;28;20036;-76
2021/04/07 02:51:55;;;;;;;2.85;2.65;;;5.60;79.70;;;;;;5073412;28;20052;-76
2021/04/07 02:54:21;;;;;;;3.60;2.97;;;5.70;79.80;;;;;;5073408;28;20028;-76
2021/04/07 02:56:47;;;;;;;4.68;2.42;;;5.70;79.60;;;;;;5073145;28;20502;-76
2021/04/07 02:59:13;;;;;;;2.97;2.67;;;5.60;79.60;;;;;;5057609;28;20017;-76
2021/04/07 03:01:38;;;;;;;3.17;2.42;;;5.60;79.90;;;;;;5062835;28;20363;-75
2021/04/07 03:04:04;;;;;;;3.20;3.00;;;5.50;79.90;;;;;;5073420;28;20075;-76
2021/04/07 03:06:30;;;;;;;2.63;2.42;;;5.50;80.10;;;;;;5073424;28;20385;-76
2021/04/07 03:08:55;;;;;;;3.00;2.40;;;5.50;80.20;;;;;;5072891;28;20025;-76
2021/04/07 03:11:22;;;;;;;3.65;2.63;;;5.50;80.10;;;;;;5073307;28;20016;-75
2021/04/07 03:13:48;;;;;;;3.88;2.35;;;5.50;80.30;;;;;;5071762;28;20492;-76
2021/04/07 03:16:13;;;;;;;5.60;2.60;;;5.50;80.30;;;;;;5073051;28;20082;-76
2021/04/07 03:18:39;;;;;;;7.60;2.95;;;5.40;80.10;;;;;;5072568;28;20025;-76
2021/04/07 03:21:05;;;;;;;2.60;2.40;;;5.50;80.20;;;;;;5073117;28;20028;-76
2021/04/07 03:23:31;;;;;;;5.78;2.95;;;5.50;80.10;;;;;;5072934;28;20422;-76
2021/04/07 03:25:57;;;;;;;4.78;3.08;;;5.60;80.80;;;;;;5071615;28;20135;-76
2021/04/07 03:28:23;;;;;;;2.67;2.42;;;5.60;79.90;;;;;;5070548;28;20127;-76
2021/04/07 03:30:51;;;;;;;5.60;2.65;;;5.60;79.90;;;;;;5072759;28;20037;-76
2021/04/07 03:33:22;;;;;;;4.32;2.97;;;5.60;79.70;;;;;;5071650;28;20028;-76
2021/04/07 03:35:49;;;;;;;2.60;2.45;;;5.60;80.00;;;;;;5072747;28;20115;-76
2021/04/07 03:38:14;;;;;;;3.70;2.50;;;5.60;80.00;;;;;;5072922;28;20078;-76
2021/04/07 03:40:40;;;;;;;5.05;2.88;;;5.60;79.80;;;;;;5072777;28;20417;-76
2021/04/07 03:43:07;;;;;;;3.13;2.78;;;5.50;79.50;;;;;;5072592;28;20124;-76
2021/04/07 03:45:33;;;;;;;2.70;2.50;;;5.60;79.50;;;;;;5072319;28;20031;-76
2021/04/07 03:47:59;;;;;;;4.18;2.85;;;5.60;78.90;;;;;;5072794;28;20108;-76
2021/04/07 03:50:26;;;;;;;8.10;2.75;;;5.60;78.90;;;;;;5071564;28;20531;-76
2021/04/07 03:52:51;;;;;;;3.47;2.30;;;5.60;79.00;;;;;;5072605;28;20052;-76
2021/04/07 03:55:18;;;;;;;3.58;2.60;;;5.60;78.90;;;;;;5071206;28;20068;-76
2021/04/07 03:57:43;;;;;;;4.03;2.78;;;5.60;78.70;;;;;;5069130;28;20025;-75
2021/04/07 04:00:09;;;;;;;5.53;2.83;;;5.60;78.90;;;;;;5069340;28;20053;-75
2021/04/07 04:02:35;;;;;;;3.10;2.90;;;5.50;78.90;;;;;;5072276;28;20055;-76
2021/04/07 04:05:01;;;;;;;2.85;2.60;;;5.60;79.00;;;;;;5072547;28;20029;-76
2021/04/07 04:07:27;;;;;;;2.83;2.47;;;5.60;78.60;;;;;;5072647;28;20592;-76
2021/04/07 04:09:53;;;;;;;2.78;2.58;;;5.50;78.50;;;;;;5072557;28;20028;-76
2021/04/07 04:12:19;;;;;;;4.60;3.20;;;5.60;78.20;;;;;;5072558;28;20035;-76
2021/04/07 04:14:44;;;;;;;3.58;3.03;;;5.60;78.40;;;;;;5070957;28;20025;-76
2021/04/07 04:17:10;;;;;;;2.97;2.60;;;5.60;78.30;;;;;;5071174;28;20031;-76
2021/04/07 04:19:36;;;;;;;3.00;2.70;;;5.50;78.20;;;;;;5072385;28;20029;-76
2021/04/07 04:22:04;;;;;;;3.50;2.88;;;5.50;78.10;;;;;;5072607;28;20116;-76
2021/04/07 04:24:30;;;;;;;8.00;2.55;;;5.60;78.10;;;;;;5071758;28;20062;-76
2021/04/07 04:26:55;;;;;;;5.05;2.97;;;5.60;77.60;;;;;;5070020;28;20054;-76
2021/04/07 04:29:21;;;;;;;3.72;2.80;;;5.40;77.00;;;;;;5071766;28;20036;-76
2021/04/07 04:31:47;;;;;;;3.53;3.22;;;5.50;76.80;;;;;;5071462;28;20033;-76
2021/04/07 04:34:12;;;;;;;10.02;2.90;;;5.40;76.60;;;;;;5070367;28;20025;-76
2021/04/07 04:36:41;;;;;;;3.63;3.20;;;5.50;76.40;;;;;;5070192;28;20028;-76
2021/04/07 04:39:06;;;;;;;10.35;2.95;;;5.30;76.50;;;;;;5070350;28;20024;-76
2021/04/07 04:41:32;;;;;;;5.00;3.40;;;5.30;77.00;;;;;;5075344;28;20684;-76
2021/04/07 04:44:01;;;;;;;4.03;2.67;;;5.30;76.80;;;;;;5075304;28;20412;-76
2021/04/07 04:46:26;;;;;;;11.20;2.92;;;5.30;76.50;;;;;;5074057;28;20505;-76
2021/04/07 04:48:52;;;;;;;4.45;2.50;;;5.20;75.70;;;;;;5075344;28;20099;-76
2021/04/07 04:51:18;;;;;;;9.85;3.28;;;5.20;75.80;;;;;;5074386;28;20077;-76
2021/04/07 04:53:43;;;;;;;4.70;2.60;;;5.20;76.00;;;;;;5075236;28;20119;-76
2021/04/07 04:56:09;;;;;;;8.25;2.95;;;5.10;76.00;;;;;;5075789;28;20020;-76
2021/04/07 04:58:35;;;;;;;4.53;3.13;;;5.10;76.20;;;;;;5064740;28;20494;-76
2021/04/07 05:01:00;;;;;;;3.70;2.53;;;5.10;76.10;;;;;;5061811;28;20043;-76
2021/04/07 05:03:26;;;;;;;4.15;2.58;;;5.20;76.00;;;;;;5075270;28;20103;-76
2021/04/07 05:05:52;;;;;;;2.15;2.03;;;5.20;75.70;;;;;;5074029;28;20036;-76
2021/04/07 05:08:17;;;;;;;8.60;2.90;;;5.10;75.00;;;;;;5075472;28;20063;-76
2021/04/07 05:10:44;;;;;;;3.10;2.85;;;5.00;74.80;;;;;;5075483;28;20475;-76
2021/04/07 05:13:10;;;;;;;6.15;2.75;;;5.00;75.20;;;;;;5075261;28;20094;-76
2021/04/07 05:15:36;;;;;;;3.78;3.42;;;5.20;75.70;;;;;;5073782;28;20620;-76
2021/04/07 05:18:10;;;;;;;4.50;2.78;;;5.20;75.20;;;;;;5075234;28;20027;-76
2021/04/07 05:20:36;;;;;;;6.28;2.70;;;5.20;74.90;;;;;;5075429;28;20386;-76
2021/04/07 05:23:01;;;;;;;4.18;2.28;;;5.20;73.90;;;;;;5073522;28;20119;-76
2021/04/07 05:25:27;;;;;;;6.03;2.10;;;5.20;73.50;;;;;;5074444;28;20024;-75
2021/04/07 05:27:53;;;;;;;4.25;2.53;;;5.20;73.80;;;;;;5070129;28;20066;-76
2021/04/07 05:30:19;;;;;;;2.60;2.30;;;5.10;74.30;;;;;;5055172;28;20061;-76
2021/04/07 05:32:45;;;;;;;4.55;3.17;;;5.20;73.20;;;;;;5055318;28;20025;-76
2021/04/07 05:35:12;;;;;;;4.70;2.88;;;5.20;73.00;;;;;;5065698;28;20028;-76
2021/04/07 05:37:37;;;;;;;4.47;3.40;;;5.20;72.70;;;;;;5074627;28;20027;-77
2021/04/07 05:40:07;;;;;;;7.72;3.25;;;5.20;72.50;;;;;;5074979;28;20596;-77
2021/04/07 05:42:32;;;;;;;7.45;2.90;;;5.20;72.20;;;;;;5075073;28;20017;-76
2021/04/07 05:44:58;;;;;;;7.47;4.00;;;5.20;72.00;;;;;;5074799;28;20024;-76
2021/04/07 05:47:24;;;;;;;6.30;4.35;;;5.20;72.00;;;;;;5073341;28;20513;-76
2021/04/07 05:49:49;;;;;;;5.50;3.42;;;5.20;72.20;;;;;;5074530;28;20152;-76
2021/04/07 05:52:15;;;;;;;8.43;3.10;;;5.20;71.60;;;;;;5073753;28;20021;-76
2021/04/07 05:54:41;;;;;;;13.77;2.75;;;5.20;71.10;;;;;;5073498;28;20032;-76
2021/04/07 05:57:06;;;;;;;7.22;2.63;;;5.30;70.30;;;;;;5074814;28;20019;-76
2021/04/07 05:59:34;;;;;;;7.03;2.00;;;5.40;69.80;;;;;;5072775;28;21093;-76
2021/04/07 06:01:59;;;;;;;3.55;2.10;;;5.40;69.10;;;;;;5074420;28;20012;-76
2021/04/07 06:04:25;;;;;;;5.88;2.50;;;5.40;69.40;;;;;;5074264;28;20090;-76
2021/04/07 06:06:51;;;;;;;7.45;3.38;;;5.40;69.40;;;;;;5073023;28;20028;-75
2021/04/07 06:09:17;;;;;;;5.10;1.70;;;5.50;69.20;;;;;;5072876;28;20029;-76
2021/04/07 06:11:43;;;;;;;10.07;2.95;;;5.50;68.70;;;;;;5073968;28;20115;-76
2021/04/07 06:14:09;;;;;;;4.40;2.60;;;5.50;68.70;;;;;;5072593;28;20119;-76
2021/04/07 06:16:34;;;;;;;2.40;2.20;;;5.60;68.30;;;;;;5074450;28;20432;-76
2021/04/07 06:19:00;;;;;;;4.55;2.08;;;5.70;67.40;;;;;;5072464;28;20424;-76
2021/04/07 06:21:26;;;;;;;5.47;2.10;;;5.70;67.20;;;;;;5073540;28;20021;-75
2021/04/07 06:23:52;;;;;;;2.33;2.15;;;5.80;66.60;;;;;;5073962;28;20048;-76
2021/04/07 06:26:18;;;;;;;6.05;2.30;;;5.90;65.90;;;;;;5073934;28;20352;-76
2021/04/07 06:28:43;;;;;;;5.13;2.15;;;5.90;64.10;;;;;;5073519;28;20116;-77
2021/04/07 06:31:09;;;;;;;12.68;3.25;;;6.00;63.00;;;;;;5073558;28;20036;-76
2021/04/07 06:33:37;;;;;;;6.55;2.35;;;6.00;63.20;;;;;;5072559;28;20035;-76
2021/04/07 06:36:07;;;;;;;8.48;2.40;;;6.00;62.80;;;;;;5072773;28;20083;-76
2021/04/07 06:38:35;;;;;;;13.65;2.85;;;6.10;63.10;;;;;;5073862;28;20428;-76
2021/04/07 06:41:02;;;;;;;12.85;2.78;;;6.20;62.40;;;;;;5073681;28;20036;-76
2021/04/07 06:43:32;;;;;;;5.53;2.63;;;6.30;62.70;;;;;;5072281;28;20478;-76
2021/04/07 06:45:59;;;;;;;3.83;2.30;;;6.40;61.30;;;;;;5074846;28;20363;-76
2021/04/07 06:48:25;;;;;;;4.82;2.30;;;6.50;62.00;;;;;;5074227;28;20029;-76
2021/04/07 06:50:53;;;;;;;3.08;1.73;;;6.50;63.90;;;;;;5073328;28;20035;-75
2021/04/07 06:53:22;;;;;;;1.70;1.60;;;6.60;64.00;;;;;;5073419;28;20025;-76
2021/04/07 06:55:48;;;;;;;2.60;1.52;;;6.60;60.00;;;;;;5053436;28;20427;-75
2021/04/07 06:58:14;;;;;;;2.78;1.60;;;6.70;59.80;;;;;;5065170;28;20394;-76
2021/04/07 07:00:41;;;;;;;4.10;1.60;;;6.80;61.00;;;;;;5070169;28;20024;-76
2021/04/07 07:03:08;;;;;;;2.35;1.90;;;6.80;60.40;;;;;;5074214;28;20055;-76
2021/04/07 07:05:36;;;;;;;1.98;1.88;;;6.90;60.00;;;;;;5083261;28;20494;-76
2021/04/07 07:08:13;;;;;;;2.22;1.70;;;6.90;61.80;;;;;;5073288;28;20024;-75
2021/04/07 07:10:44;;;;;;;3.63;1.73;;;7.00;60.50;;;;;;5073285;28;20170;-76
2021/04/07 07:13:14;;;;;;;3.28;1.75;;;7.00;58.10;;;;;;5091742;28;20417;-76
2021/04/07 07:15:40;;;;;;;1.70;1.40;;;6.90;55.10;;;;;;5093326;28;20046;-76
2021/04/07 07:18:06;;;;;;;2.63;1.67;;;6.90;55.30;;;;;;5080455;28;20025;-76
2021/04/07 07:20:36;;;;;;;3.72;2.17;;;7.00;56.50;;;;;;5087832;28;20028;-75
2021/04/07 07:23:03;;;;;;;4.20;2.35;;;7.00;57.90;;;;;;5083999;28;20115;-76
2021/04/07 07:25:29;;;;;;;4.82;2.70;;;7.10;60.60;;;;;;5070823;28;20482;-76
2021/04/07 07:28:05;;;;;;;3.97;2.88;;;7.20;63.50;;;;;;5067803;28;20025;-76
2021/04/07 07:30:42;;;;;;;12.07;3.10;;;7.30;65.20;;;;;;5071603;28;20062;-76
2021/04/07 07:33:15;;;;;;;14.10;3.50;;;7.40;67.10;;;;;;5070837;28;20024;-74
2021/04/07 07:35:41;;;;;;;7.53;3.33;;;7.50;67.10;;;;;;5071233;28;20478;-75
2021/04/07 07:38:07;;;;;;;7.97;3.67;;;7.90;70.10;;;;;;5071916;28;20111;-75
2021/04/07 07:40:32;;;;;;;8.45;3.20;;;7.80;65.60;;;;;;5069635;28;20021;-75
2021/04/07 07:42:58;;;;;;;2.33;2.10;;;7.80;64.70;;;;;;5072180;28;20540;-75
2021/04/07 07:45:35;;;;;;;7.03;2.95;;;7.80;61.50;;;;;;5070767;28;20025;-75
2021/04/07 07:48:08;;;;;;;3.20;2.67;;;7.80;61.80;;;;;;5063765;28;20028;-75
2021/04/07 07:50:36;;;;;;;4.50;2.35;;;7.90;60.70;;;;;;5070834;28;20370;-75
2021/04/07 07:53:31;;;;;;;5.72;2.38;;;7.90;59.20;;;;;;5069873;28;20027;-75
2021/04/07 07:55:57;;;;;;;2.25;1.98;;;8.00;58.90;;;;;;5065385;28;20039;-75
2021/04/07 07:58:27;;;;;;;4.90;1.80;;;8.00;58.40;;;;;;5069877;28;20100;-75
2021/04/07 08:01:06;;;;;;;2.15;1.95;;;8.10;53.90;;;;;;5066368;28;20055;-75
2021/04/07 08:03:32;;;;;;;3.60;1.85;;;8.10;52.60;;;;;;5069351;28;20032;-76
2021/04/07 08:05:58;;;;;;;5.85;2.00;;;8.10;53.40;;;;;;5071607;28;20086;-75
2021/04/07 08:08:24;;;;;;;6.55;1.92;;;8.20;54.60;;;;;;5070137;28;20024;-75
2021/04/07 08:10:50;;;;;;;5.68;1.50;;;8.20;54.80;;;;;;5071034;28;20021;-75
2021/04/07 08:13:16;;;;;;;2.40;1.65;;;8.30;54.70;;;;;;5070346;28;20056;-75
2021/04/07 08:15:44;;;;;;;3.70;1.30;;;8.30;53.40;;;;;;5074069;28;20491;-75
2021/04/07 08:18:13;;;;;;;4.80;1.98;;;8.30;50.70;;;;;;5075020;28;20344;-75
2021/04/07 08:20:39;;;;;;;8.32;2.08;;;8.30;51.00;;;;;;5066471;28;20104;-74
2021/04/07 08:23:08;;;;;;;7.07;1.80;;;8.40;52.30;;;;;;5075491;28;20036;-75
2021/04/07 08:25:35;;;;;;;1.50;1.40;;;8.50;52.20;;;;;;5074858;28;20032;-75
2021/04/07 08:28:03;;;;;;;2.53;1.25;;;8.50;50.40;;;;;;5075068;28;20490;-76
2021/04/07 08:30:29;;;;;;;2.10;1.20;;;8.60;48.00;;;;;;5075451;28;20099;-75
2021/04/07 08:32:55;;;;;;;2.72;1.48;;;8.70;48.20;;;;;;5073638;28;20119;-76
2021/04/07 08:35:23;;;;;;;2.35;1.98;;;8.80;47.40;;;;;;5075338;28;20166;-76
2021/04/07 08:38:07;;;;;;;1.50;1.00;;;8.80;46.50;;;;;;5074997;28;20028;-75
2021/04/07 08:40:41;;;;;;;1.20;1.10;;;8.90;42.20;;;;;;5074986;28;20028;-75
2021/04/07 08:43:09;;;;;;;4.00;1.20;;;8.90;43.40;;;;;;5073822;28;20107;-75
2021/04/07 08:45:45;;;;;;;5.35;1.25;;;9.00;43.70;;;;;;5074942;28;20107;-75
2021/04/07 08:48:22;;;;;;;1.52;0.70;;;9.00;40.20;;;;;;5075171;28;20086;-75
2021/04/07 08:50:49;;;;;;;1.73;0.95;;;9.00;34.60;;;;;;5074690;28;20021;-75
2021/04/07 08:53:18;;;;;;;4.03;1.05;;;9.00;32.10;;;;;;5073340;28;20146;-75
2021/04/07 08:55:54;;;;;;;3.92;1.42;;;9.00;33.70;;;;;;5074178;28;20024;-75
2021/04/07 08:58:26;;;;;;;3.20;0.90;;;9.10;36.20;;;;;;5072094;28;20029;-75
2021/04/07 09:00:54;;;;;;;2.40;1.20;;;9.20;35.10;;;;;;5073363;28;20115;-75
2021/04/07 09:03:25;;;;;;;3.28;1.23;;;9.20;35.90;;;;;;5072996;28;20025;-75
2021/04/07 09:05:52;;;;;;;2.53;0.93;;;9.30;34.70;;;;;;5072537;28;20035;-75
2021/04/07 09:08:22;;;;;;;2.60;0.98;;;9.30;35.00;;;;;;5074693;28;20082;-75
2021/04/07 09:10:53;;;;;;;4.00;1.30;;;9.30;35.40;;;;;;5073893;28;20024;-75
2021/04/07 09:13:23;;;;;;;3.05;1.20;;;9.60;37.00;;;;;;5074550;28;20032;-75
2021/04/07 09:15:51;;;;;;;1.92;1.10;;;9.70;34.90;;;;;;5071912;28;20025;-75
2021/04/07 09:18:31;;;;;;;3.95;1.30;;;9.80;36.20;;;;;;5072340;28;20060;-75
2021/04/07 09:20:57;;;;;;;2.58;1.70;;;9.90;37.70;;;;;;5074109;28;20021;-75
2021/04/07 09:23:36;;;;;;;1.77;1.30;;;9.90;37.60;;;;;;5071818;28;20045;-75
2021/04/07 09:26:13;;;;;;;2.28;1.48;;;9.70;39.60;;;;;;5072744;28;20027;-75
2021/04/07 09:28:50;;;;;;;6.38;1.58;;;9.60;40.30;;;;;;5071945;28;20028;-75
2021/04/07 09:31:21;;;;;;;8.32;1.50;;;9.60;42.40;;;;;;5071808;28;20047;-75
2021/04/07 09:33:52;;;;;;;6.40;1.65;;;9.50;43.60;;;;;;5074323;28;20032;-75
2021/04/07 09:36:25;;;;;;;1.45;1.35;;;9.40;44.90;;;;;;5066505;28;20036;-75
2021/04/07 09:38:52;;;;;;;3.85;1.45;;;9.30;45.30;;;;;;5073598;28;20032;-75
2021/04/07 09:41:24;;;;;;;3.35;1.42;;;9.20;44.50;;;;;;5072068;28;20066;-75
2021/04/07 09:43:51;;;;;;;1.67;1.58;;;9.20;45.50;;;;;;5072365;28;20474;-75
2021/04/07 09:46:16;;;;;;;2.83;1.77;;;9.20;45.20;;;;;;5073523;28;20359;-75
2021/04/07 09:48:46;;;;;;;5.32;2.40;;;9.10;43.10;;;;;;5071438;28;20035;-75
2021/04/07 09:51:15;;;;;;;5.45;2.10;;;9.10;43.30;;;;;;5073140;28;20024;-75
2021/04/07 09:53:41;;;;;;;1.63;1.52;;;9.10;43.90;;;;;;5073042;28;20025;-75
2021/04/07 09:56:07;;;;;;;3.97;1.63;;;9.10;43.60;;;;;;5071759;28;20036;-75
2021/04/07 09:58:51;;;;;;;4.88;1.55;;;9.10;43.70;;;;;;5073121;28;20038;-75
2021/04/07 10:01:18;;;;;;;3.47;1.60;;;9.10;43.10;;;;;;5074010;28;20059;-75
2021/04/07 10:03:49;;;;;;;2.60;1.70;;;9.10;42.60;;;;;;5071822;28;20029;-75
2021/04/07 10:06:25;;;;;;;2.35;1.30;;;9.10;42.10;;;;;;5066153;28;20020;-76
2021/04/07 10:09:02;;;;;;;1.30;1.20;;;9.20;41.90;;;;;;5073099;28;20115;-75
2021/04/07 10:11:28;;;;;;;4.13;1.25;;;9.20;39.40;;;;;;5071873;28;20119;-76
2021/04/07 10:13:59;;;;;;;1.25;0.90;;;9.10;36.80;;;;;;5073522;28;20127;-75
2021/04/07 10:16:25;;;;;;;1.08;1.00;;;9.10;34.70;;;;;;5073479;28;20420;-75
2021/04/07 10:18:52;;;;;;;3.15;1.42;;;9.10;31.10;;;;;;5072808;28;20028;-75
2021/04/07 10:21:20;;;;;;;1.00;1.00;;;9.10;30.40;;;;;;5073259;28;20028;-75
2021/04/07 10:23:47;;;;;;;1.65;1.05;;;9.10;30.10;;;;;;5071648;28;20063;-76
2021/04/07 10:26:16;;;;;;;1.13;1.02;;;9.10;30.10;;;;;;5071191;28;20024;-75
2021/04/07 10:28:57;;;;;;;1.00;1.00;;;9.20;30.00;;;;;;5071506;28;20485;-75
2021/04/07 10:31:23;;;;;;;2.95;1.10;;;9.20;29.20;;;;;;5072774;28;20039;-75
2021/04/07 10:34:00;;;;;;;3.65;1.08;;;9.30;28.90;;;;;;5073124;28;20032;-75
2021/04/07 10:36:28;;;;;;;4.47;1.00;;;9.40;29.30;;;;;;5072787;28;20103;-75
2021/04/07 10:38:54;;;;;;;1.52;1.00;;;9.50;29.80;;;;;;5071480;28;20036;-76
2021/04/07 10:41:23;;;;;;;3.95;0.93;;;9.60;28.90;;;;;;5071509;28;20166;-75
2021/04/07 10:43:49;;;;;;;0.88;0.88;;;9.70;30.30;;;;;;5071390;28;20056;-75
2021/04/07 10:46:15;;;;;;;1.13;0.70;;;9.80;29.10;;;;;;5072494;28;21208;-75
2021/04/07 10:48:40;;;;;;;1.45;1.35;;;9.80;26.80;;;;;;5072301;28;20036;-76
2021/04/07 10:51:08;;;;;;;2.17;1.10;;;9.90;27.10;;;;;;5072540;28;20025;-75
2021/04/07 10:53:41;;;;;;;0.93;0.93;;;10.00;27.20;;;;;;5070601;28;20352;-75
2021/04/07 10:56:22;;;;;;;2.47;1.10;;;10.10;28.40;;;;;;5072427;28;20021;-75
2021/04/07 10:58:56;;;;;;;1.20;0.80;;;10.10;27.00;;;;;;5071936;28;20467;-75
2021/04/07 11:01:27;;;;;;;1.27;0.85;;;10.30;27.80;;;;;;5071538;28;20482;-75
2021/04/07 11:03:53;;;;;;;2.17;1.23;;;10.40;30.90;;;;;;5069205;28;20028;-75
2021/04/07 11:06:23;;;;;;;2.88;1.08;;;10.50;30.40;;;;;;5070449;28;20044;-75
2021/04/07 11:08:52;;;;;;;1.92;1.02;;;10.60;29.70;;;;;;5070343;28;20032;-75
2021/04/07 11:11:23;;;;;;;3.97;1.15;;;10.50;28.90;;;;;;5070221;28;20113;-75
2021/04/07 11:13:50;;;;;;;3.03;1.38;;;10.50;28.80;;;;;;5070434;28;20035;-75
2021/04/07 11:16:16;;;;;;;2.55;1.80;;;10.60;29.90;;;;;;5070781;28;20035;-75
2021/04/07 11:18:42;;;;;;;1.70;1.60;;;10.60;30.00;;;;;;5070272;28;20028;-75
2021/04/07 11:21:09;;;;;;;6.88;2.05;;;10.40;30.20;;;;;;5071568;28;20112;-75
2021/04/07 11:23:36;;;;;;;5.10;2.40;;;10.40;30.70;;;;;;5071337;28;20056;-75
2021/04/07 11:26:11;;;;;;;6.20;2.67;;;10.40;30.20;;;;;;5071397;28;20052;-75
2021/04/07 11:28:37;;;;;;;3.47;2.13;;;10.30;29.20;;;;;;5069322;28;20017;-75
2021/04/07 11:46:35;;;;;;;1.00;1.00;;;11.20;26.40;;;;;;5071440;28;20037;-75
2021/04/07 11:49:03;;;;;;;3.08;1.13;;;11.30;26.10;;;;;;5070629;28;20040;-75
2021/04/07 11:51:29;;;;;;;1.75;0.90;;;11.50;24.20;;;;;;5070975;28;20775;-75
2021/04/07 11:53:54;;;;;;;1.10;0.90;;;11.50;23.50;;;;;;5070587;28;20032;-74
2021/04/07 11:56:20;;;;;;;3.13;2.08;;;11.50;23.20;;;;;;5071676;28;20514;-75
2021/04/07 11:58:46;;;;;;;1.08;0.98;;;11.40;21.20;;;;;;5061749;28;20029;-75
2021/04/07 12:01:12;;;;;;;0.80;0.80;;;11.60;22.20;;;;;;5070667;28;20020;-75
2021/04/07 12:03:38;;;;;;;0.82;0.80;;;11.70;23.50;;;;;;5072420;28;20360;-74
2021/04/07 12:06:04;;;;;;;1.35;1.20;;;11.90;22.20;;;;;;5072150;28;20504;-74
2021/04/07 12:08:29;;;;;;;3.85;1.33;;;12.00;24.20;;;;;;5085988;28;20028;-75
2021/04/07 12:10:59;;;;;;;2.13;1.40;;;12.00;26.30;;;;;;5084375;28;20031;-75
2021/04/07 12:13:26;;;;;;;2.47;1.17;;;12.10;25.90;;;;;;5071714;28;20044;-75
2021/04/07 12:15:52;;;;;;;1.25;1.02;;;12.00;24.30;;;;;;5072316;28;20020;-75
2021/04/07 12:18:18;;;;;;;1.45;1.35;;;12.10;22.80;;;;;;5070315;28;20489;-75
2021/04/07 12:20:44;;;;;;;1.30;1.20;;;12.30;25.60;;;;;;5071956;28;20108;-75
2021/04/07 12:23:10;;;;;;;1.55;0.90;;;12.40;25.00;;;;;;5071563;28;20076;-75
2021/04/07 12:25:35;;;;;;;1.27;1.10;;;12.50;23.30;;;;;;5071222;28;20033;-75
2021/04/07 12:28:01;;;;;;;1.92;1.42;;;12.70;22.70;;;;;;5069737;28;20123;-75
2021/04/07 12:30:27;;;;;;;4.32;1.67;;;12.90;21.50;;;;;;5070591;28;20079;-75
2021/04/07 12:32:53;;;;;;;0.90;0.90;;;13.00;21.30;;;;;;5070570;28;20024;-74
2021/04/07 12:35:19;;;;;;;1.20;1.00;;;13.30;22.60;;;;;;5071555;28;20031;-74
2021/04/07 12:37:45;;;;;;;0.95;0.90;;;13.50;20.40;;;;;;5071534;28;20063;-74
2021/04/07 12:40:11;;;;;;;1.58;1.48;;;13.50;19.50;;;;;;5071477;28;20024;-74
2021/04/07 12:42:37;;;;;;;1.35;1.25;;;13.80;21.70;;;;;;5070824;28;20413;-74
2021/04/07 12:45:04;;;;;;;2.88;1.88;;;13.80;21.80;;;;;;5071693;28;20029;-75
2021/04/07 12:47:30;;;;;;;2.58;1.60;;;14.00;23.30;;;;;;5070599;28;20020;-75
2021/04/07 12:49:56;;;;;;;2.20;2.00;;;14.00;23.40;;;;;;5070266;28;20462;-75
2021/04/07 12:52:21;;;;;;;3.38;1.60;;;13.80;22.30;;;;;;5071449;28;20036;-74
2021/04/07 12:54:47;;;;;;;3.60;1.80;;;13.70;23.50;;;;;;5071527;28;20032;-75
2021/04/07 12:57:13;;;;;;;3.90;1.75;;;13.60;23.00;;;;;;5071752;28;20031;-74
2021/04/07 12:59:39;;;;;;;1.50;1.40;;;13.40;21.20;;;;;;5070286;28;20033;-74
2021/04/07 13:02:04;;;;;;;1.27;1.17;;;13.40;21.10;;;;;;5072843;28;20032;-75
2021/04/07 13:04:30;;;;;;;1.45;1.20;;;13.50;22.30;;;;;;5074893;28;20033;-74
2021/04/07 13:06:56;;;;;;;2.45;1.90;;;13.50;22.00;;;;;;5074860;28;20475;-74
2021/04/07 13:09:21;;;;;;;1.80;1.65;;;13.40;22.30;;;;;;5074538;28;20127;-74
2021/04/07 13:11:47;;;;;;;3.33;1.60;;;13.50;24.00;;;;;;5072588;28;20481;-75